Time;durP1;ratioP1;P1;durP2;ratioP2;P2;SDS_P1;SDS_P2;PMS_P1;PMS_P2;Temp;Humidity;BMP_temperature;BMP_pressure;BME280_temperature;BME280_humidity;BME280_pressure;Samples;Min_cycle;Max_cycle;Signal;HPM_P1;HPM_P2
2021/12/01 00:00:27;;;;;;;12.33;6.87;;;;;;;;;;5071605;28;20440;-74
2021/12/01 00:02:57;;;;;;;10.00;6.10;;;;;;;;;;5077483;28;20468;-74
2021/12/01 00:05:26;;;;;;;8.37;6.43;;;;;;;;;;5043889;28;20567;-74
2021/12/01 00:07:54;;;;;;;11.17;6.13;;;;;;;;;;5042094;28;20513;-75
2021/12/01 00:10:23;;;;;;;11.17;6.13;;;;;;;;;;5053121;28;20548;-74
2021/12/01 00:12:51;;;;;;;10.00;5.90;;;;;;;;;;5056458;28;20473;-74
2021/12/01 00:15:19;;;;;;;9.90;6.57;;;;;;;;;;5056581;28;20875;-75
2021/12/01 00:17:49;;;;;;;11.83;6.90;;;;;;;;;;5056941;28;20444;-75
2021/12/01 00:20:18;;;;;;;12.10;6.20;;;;;;;;;;5052266;28;20804;-74
2021/12/01 00:22:46;;;;;;;8.03;5.97;;;;;;;;;;5057335;28;20206;-75
2021/12/01 00:25:16;;;;;;;11.60;7.57;;;;;;;;;;5059813;28;20443;-75
2021/12/01 00:27:44;;;;;;;9.57;6.97;;;;;;;;;;5055152;28;20214;-74
2021/12/01 00:30:13;;;;;;;10.13;6.23;;;;;;;;;;5054860;28;20450;-75
2021/12/01 00:32:41;;;;;;;8.90;6.23;;;;;;;;;;5059857;28;20453;-74
2021/12/01 00:35:10;;;;;;;17.03;7.83;;;;;;;;;;5060036;28;20455;-75
2021/12/01 00:37:39;;;;;;;9.13;6.37;;;;;;;;;;5049422;28;20456;-74
2021/12/01 00:40:08;;;;;;;7.93;6.27;;;;;;;;;;5059679;28;20456;-74
2021/12/01 00:42:37;;;;;;;11.37;7.23;;;;;;;;;;5060451;28;20528;-74
2021/12/01 00:45:11;;;;;;;10.33;6.60;;;;;;;;;;5060363;28;20445;-74
2021/12/01 00:47:43;;;;;;;8.50;6.17;;;;;;;;;;5060210;28;20440;-74
2021/12/01 00:50:13;;;;;;;11.53;7.27;;;;;;;;;;5060484;28;20517;-74
2021/12/01 00:52:41;;;;;;;11.33;6.67;;;;;;;;;;5050033;28;20454;-74
2021/12/01 00:55:10;;;;;;;12.50;6.67;;;;;;;;;;5057679;28;20453;-74
2021/12/01 00:57:38;;;;;;;7.17;6.00;;;;;;;;;;5060337;28;20447;-74
2021/12/01 01:00:07;;;;;;;11.37;6.17;;;;;;;;;;5077996;28;20452;-74
2021/12/01 01:02:35;;;;;;;12.50;5.83;;;;;;;;;;5080413;28;20445;-74
2021/12/01 01:05:03;;;;;;;10.77;7.33;;;;;;;;;;5077945;28;20854;-74
2021/12/01 01:07:32;;;;;;;11.23;7.10;;;;;;;;;;5058641;28;20886;-74
2021/12/01 01:10:06;;;;;;;10.23;6.23;;;;;;;;;;5045961;28;20489;-74
2021/12/01 01:18:08;;;;;;;11.73;6.60;;;;;;;;;;5048318;28;20473;-74
2021/12/01 01:20:36;;;;;;;10.13;6.83;;;;;;;;;;5059544;28;20441;-74
2021/12/01 01:23:05;;;;;;;12.60;7.30;;;;;;;;;;5057848;28;20457;-74
2021/12/01 01:25:34;;;;;;;10.53;6.93;;;;;;;;;;5059652;28;20452;-74
2021/12/01 01:28:02;;;;;;;16.30;7.27;;;;;;;;;;5059619;28;20476;-74
2021/12/01 01:30:30;;;;;;;10.33;7.30;;;;;;;;;;5059223;28;20487;-73
2021/12/01 01:32:58;;;;;;;10.57;7.50;;;;;;;;;;5059516;28;20811;-74
2021/12/01 01:35:26;;;;;;;12.87;7.10;;;;;;;;;;5053939;28;20466;-74
2021/12/01 01:37:54;;;;;;;7.97;6.83;;;;;;;;;;5059103;28;20528;-74
2021/12/01 01:40:24;;;;;;;11.03;7.47;;;;;;;;;;5058430;28;20528;-74
2021/12/01 01:42:52;;;;;;;11.10;7.30;;;;;;;;;;5059307;28;20473;-74
2021/12/01 01:45:19;;;;;;;10.47;7.00;;;;;;;;;;5059083;28;20449;-74
2021/12/01 01:47:49;;;;;;;9.47;6.37;;;;;;;;;;5045314;28;20457;-73
2021/12/01 01:50:26;;;;;;;12.47;7.67;;;;;;;;;;5058841;28;20481;-74
2021/12/01 01:52:54;;;;;;;12.90;7.37;;;;;;;;;;5059369;28;20456;-74
2021/12/01 01:55:24;;;;;;;13.17;7.87;;;;;;;;;;5058232;28;20457;-74
2021/12/01 01:57:52;;;;;;;9.07;7.00;;;;;;;;;;5059068;28;20442;-74
2021/12/01 02:00:20;;;;;;;8.77;6.77;;;;;;;;;;5073543;28;20447;-74
2021/12/01 02:02:48;;;;;;;11.17;7.13;;;;;;;;;;5079163;28;20448;-74
2021/12/01 02:05:16;;;;;;;10.53;7.50;;;;;;;;;;5073979;28;20461;-74
2021/12/01 02:07:44;;;;;;;11.40;6.73;;;;;;;;;;5058586;28;20931;-74
2021/12/01 02:10:12;;;;;;;10.47;6.77;;;;;;;;;;5057890;28;20488;-74
2021/12/01 02:12:42;;;;;;;10.53;6.73;;;;;;;;;;5056873;28;20481;-74
2021/12/01 02:15:10;;;;;;;9.37;6.63;;;;;;;;;;5058600;28;20456;-74
2021/12/01 02:17:38;;;;;;;8.70;6.57;;;;;;;;;;5047115;28;21031;-74
2021/12/01 02:20:13;;;;;;;13.17;7.57;;;;;;;;;;5058619;28;20443;-74
2021/12/01 02:22:42;;;;;;;11.90;7.30;;;;;;;;;;5058852;28;20449;-74
2021/12/01 02:25:10;;;;;;;11.70;7.17;;;;;;;;;;5056654;28;20815;-74
2021/12/01 02:27:38;;;;;;;13.27;7.20;;;;;;;;;;5044829;28;20472;-74
2021/12/01 02:30:06;;;;;;;9.40;6.87;;;;;;;;;;5058100;28;21006;-74
2021/12/01 02:32:34;;;;;;;9.23;6.23;;;;;;;;;;5058194;28;20813;-74
2021/12/01 02:35:02;;;;;;;12.00;7.20;;;;;;;;;;5058482;28;20455;-74
2021/12/01 02:37:30;;;;;;;11.70;6.80;;;;;;;;;;5050139;28;20450;-74
2021/12/01 02:40:00;;;;;;;11.40;6.07;;;;;;;;;;5053209;28;20484;-74
2021/12/01 02:42:28;;;;;;;12.07;6.40;;;;;;;;;;5056851;28;20453;-74
2021/12/01 02:44:56;;;;;;;11.23;7.03;;;;;;;;;;5058113;28;20449;-74
2021/12/01 02:47:25;;;;;;;10.87;6.50;;;;;;;;;;5057823;28;20826;-74
2021/12/01 02:49:54;;;;;;;15.17;7.87;;;;;;;;;;5058113;28;20489;-74
2021/12/01 02:52:22;;;;;;;12.13;7.77;;;;;;;;;;5047754;28;20453;-74
2021/12/01 02:54:50;;;;;;;12.90;7.63;;;;;;;;;;5058174;28;20506;-74
2021/12/01 02:57:20;;;;;;;10.87;6.80;;;;;;;;;;5058218;28;20450;-74
2021/12/01 02:59:48;;;;;;;11.07;7.60;;;;;;;;;;5044416;28;20836;-74
2021/12/01 03:02:16;;;;;;;12.57;7.30;;;;;;;;;;5053869;28;20457;-74
2021/12/01 03:04:45;;;;;;;10.83;7.57;;;;;;;;;;5055151;28;20957;-74
2021/12/01 03:07:13;;;;;;;12.47;8.10;;;;;;;;;;5056600;28;20463;-74
2021/12/01 03:09:41;;;;;;;11.00;6.57;;;;;;;;;;5057472;28;20488;-74
2021/12/01 03:12:10;;;;;;;15.87;7.30;;;;;;;;;;5057693;28;20473;-74
2021/12/01 03:14:39;;;;;;;10.70;7.13;;;;;;;;;;5057388;28;20460;-74
2021/12/01 03:17:08;;;;;;;9.10;6.90;;;;;;;;;;5057967;28;20473;-74
2021/12/01 03:19:36;;;;;;;11.53;7.03;;;;;;;;;;5044937;28;20489;-74
2021/12/01 03:22:04;;;;;;;13.63;7.97;;;;;;;;;;5057718;28;20441;-74
2021/12/01 03:24:33;;;;;;;12.50;7.10;;;;;;;;;;5057666;28;20445;-75
2021/12/01 03:27:01;;;;;;;10.20;7.13;;;;;;;;;;5057587;28;20937;-74
2021/12/01 03:29:28;;;;;;;9.63;6.70;;;;;;;;;;5057269;28;20471;-75
2021/12/01 03:31:58;;;;;;;13.47;7.40;;;;;;;;;;5052915;28;20457;-74
2021/12/01 03:34:26;;;;;;;11.50;7.03;;;;;;;;;;5052163;28;20461;-75
2021/12/01 03:36:54;;;;;;;14.23;7.40;;;;;;;;;;5049543;28;20455;-74
2021/12/01 03:39:23;;;;;;;14.10;7.63;;;;;;;;;;5057472;28;20475;-74
2021/12/01 03:41:51;;;;;;;11.23;7.00;;;;;;;;;;5057409;28;20843;-74
2021/12/01 03:44:19;;;;;;;9.80;7.37;;;;;;;;;;5057125;28;20472;-74
2021/12/01 03:46:47;;;;;;;9.27;6.60;;;;;;;;;;5057677;28;20452;-75
2021/12/01 03:49:16;;;;;;;14.10;8.40;;;;;;;;;;5057207;28;20475;-74
2021/12/01 03:51:44;;;;;;;12.23;7.83;;;;;;;;;;5055524;28;20473;-74
2021/12/01 03:54:12;;;;;;;17.57;8.53;;;;;;;;;;5057277;28;20441;-74
2021/12/01 03:56:40;;;;;;;9.30;6.53;;;;;;;;;;5057443;28;20530;-74
2021/12/01 03:59:08;;;;;;;12.57;7.23;;;;;;;;;;5059610;28;20465;-74
2021/12/01 04:01:36;;;;;;;10.03;7.40;;;;;;;;;;5060068;28;20530;-74
2021/12/01 04:04:04;;;;;;;11.23;8.30;;;;;;;;;;5051061;28;20491;-74
2021/12/01 04:06:34;;;;;;;12.17;7.90;;;;;;;;;;5061239;28;20451;-74
2021/12/01 04:09:02;;;;;;;12.03;7.27;;;;;;;;;;5060240;28;20487;-74
2021/12/01 04:11:30;;;;;;;13.43;7.20;;;;;;;;;;5061077;28;20481;-74
2021/12/01 04:13:58;;;;;;;12.37;7.50;;;;;;;;;;5061268;28;20448;-74
2021/12/01 04:16:26;;;;;;;11.37;7.47;;;;;;;;;;5060996;28;20453;-74
2021/12/01 04:18:54;;;;;;;11.57;7.00;;;;;;;;;;5061197;28;20537;-75
2021/12/01 04:21:24;;;;;;;11.50;7.00;;;;;;;;;;5048909;28;20966;-74
2021/12/01 04:23:53;;;;;;;13.50;7.23;;;;;;;;;;5060666;28;20453;-74
2021/12/01 04:26:24;;;;;;;8.60;6.30;;;;;;;;;;5057122;28;20940;-74
2021/12/01 04:28:52;;;;;;;12.33;6.53;;;;;;;;;;5061135;28;20461;-74
2021/12/01 04:31:20;;;;;;;11.33;6.50;;;;;;;;;;5060477;28;20844;-74
2021/12/01 04:33:49;;;;;;;13.57;6.50;;;;;;;;;;5050044;28;20457;-75
2021/12/01 04:36:17;;;;;;;8.07;5.43;;;;;;;;;;5049923;28;20862;-75
2021/12/01 04:38:45;;;;;;;8.00;5.43;;;;;;;;;;5059770;28;20477;-75
2021/12/01 04:41:15;;;;;;;8.53;6.23;;;;;;;;;;5060533;28;20441;-75
2021/12/01 04:43:43;;;;;;;7.03;5.63;;;;;;;;;;5060640;28;20460;-75
2021/12/01 04:46:15;;;;;;;10.97;6.23;;;;;;;;;;5060433;28;20473;-75
2021/12/01 04:48:44;;;;;;;9.67;6.23;;;;;;;;;;5060311;28;20465;-75
2021/12/01 04:51:12;;;;;;;7.50;5.73;;;;;;;;;;5049359;28;20488;-74
2021/12/01 04:53:40;;;;;;;8.53;5.60;;;;;;;;;;5059692;28;20440;-75
2021/12/01 04:56:08;;;;;;;8.07;5.83;;;;;;;;;;5060545;28;20445;-75
2021/12/01 04:58:37;;;;;;;9.53;6.20;;;;;;;;;;5060439;28;20465;-75
2021/12/01 05:01:05;;;;;;;10.23;6.23;;;;;;;;;;5060008;28;20816;-75
2021/12/01 05:03:33;;;;;;;10.50;6.77;;;;;;;;;;5047160;28;20531;-75
2021/12/01 05:06:01;;;;;;;8.43;6.57;;;;;;;;;;5059481;28;20515;-75
2021/12/01 05:08:29;;;;;;;8.07;6.63;;;;;;;;;;5056017;28;20992;-75
2021/12/01 05:10:57;;;;;;;11.07;6.83;;;;;;;;;;5053604;28;20540;-75
2021/12/01 05:13:25;;;;;;;11.43;7.27;;;;;;;;;;5060022;28;20487;-74
2021/12/01 05:15:54;;;;;;;11.00;6.43;;;;;;;;;;5059920;28;20445;-72
2021/12/01 05:18:22;;;;;;;8.20;6.40;;;;;;;;;;5060210;28;21042;-74
2021/12/01 05:20:50;;;;;;;8.37;6.53;;;;;;;;;;5057528;28;20824;-74
2021/12/01 05:23:18;;;;;;;13.47;6.80;;;;;;;;;;5059987;28;20446;-74
2021/12/01 05:25:48;;;;;;;10.10;6.60;;;;;;;;;;5059957;28;20452;-75
2021/12/01 05:28:16;;;;;;;9.70;6.33;;;;;;;;;;5055101;28;20987;-75
2021/12/01 05:30:45;;;;;;;9.93;6.37;;;;;;;;;;5059272;28;20481;-75
2021/12/01 05:33:15;;;;;;;10.63;6.70;;;;;;;;;;5059843;28;20517;-74
2021/12/01 05:35:46;;;;;;;9.50;6.93;;;;;;;;;;5049185;28;20544;-75
2021/12/01 05:38:15;;;;;;;12.33;6.93;;;;;;;;;;5057045;28;20461;-75
2021/12/01 05:40:43;;;;;;;11.30;6.87;;;;;;;;;;5058991;28;20452;-75
2021/12/01 05:43:11;;;;;;;11.10;6.80;;;;;;;;;;5059661;28;20455;-75
2021/12/01 05:45:40;;;;;;;10.27;6.63;;;;;;;;;;5059403;28;20476;-75
2021/12/01 05:48:08;;;;;;;11.67;7.07;;;;;;;;;;5059290;28;20464;-75
2021/12/01 05:50:38;;;;;;;13.43;8.13;;;;;;;;;;5057875;28;20453;-74
2021/12/01 05:53:06;;;;;;;16.30;8.80;;;;;;;;;;5059043;28;20441;-74
2021/12/01 05:55:34;;;;;;;10.93;7.57;;;;;;;;;;5059152;28;20937;-73
2021/12/01 05:58:02;;;;;;;9.03;7.07;;;;;;;;;;5058791;28;20461;-73
2021/12/01 06:00:30;;;;;;;10.27;6.40;;;;;;;;;;5058901;28;20453;-72
2021/12/01 06:02:58;;;;;;;12.63;7.20;;;;;;;;;;5059427;28;20456;-71
2021/12/01 06:05:27;;;;;;;9.60;7.37;;;;;;;;;;5053953;28;20953;-71
2021/12/01 06:07:56;;;;;;;13.23;8.03;;;;;;;;;;5056051;28;20828;-71
2021/12/01 06:10:24;;;;;;;11.73;6.73;;;;;;;;;;5051660;28;20526;-72
2021/12/01 06:12:52;;;;;;;17.83;10.93;;;;;;;;;;5047724;28;20493;-72
2021/12/01 06:15:20;;;;;;;10.07;7.97;;;;;;;;;;5047360;28;20437;-72
2021/12/01 06:17:48;;;;;;;10.33;7.17;;;;;;;;;;5046468;28;20452;-72
2021/12/01 06:20:16;;;;;;;10.50;6.47;;;;;;;;;;5041657;28;20844;-70
2021/12/01 06:22:45;;;;;;;9.00;6.30;;;;;;;;;;5052331;28;20462;-71
2021/12/01 06:25:14;;;;;;;12.27;6.70;;;;;;;;;;5051466;28;20442;-72
2021/12/01 06:27:42;;;;;;;8.80;6.47;;;;;;;;;;5058361;28;20448;-71
2021/12/01 06:30:11;;;;;;;7.73;4.97;;;;;;;;;;5058131;28;20445;-71
2021/12/01 06:32:39;;;;;;;8.47;5.17;;;;;;;;;;5058247;28;20572;-72
2021/12/01 06:35:08;;;;;;;10.73;5.93;;;;;;;;;;5056358;28;20477;-72
2021/12/01 06:37:35;;;;;;;8.03;5.33;;;;;;;;;;5056912;28;21014;-72
2021/12/01 06:40:04;;;;;;;7.57;5.30;;;;;;;;;;5057423;28;20481;-71
2021/12/01 06:42:35;;;;;;;8.90;5.17;;;;;;;;;;5049010;28;20956;-70
2021/12/01 06:45:05;;;;;;;9.00;5.60;;;;;;;;;;5050140;28;20537;-72
2021/12/01 06:47:33;;;;;;;10.13;5.50;;;;;;;;;;5058210;28;20456;-72
2021/12/01 06:50:03;;;;;;;5.90;5.23;;;;;;;;;;5053407;28;20484;-72
2021/12/01 06:52:31;;;;;;;8.83;5.67;;;;;;;;;;5059324;28;21019;-72
2021/12/01 06:54:59;;;;;;;8.77;5.43;;;;;;;;;;5058105;28;20441;-72
2021/12/01 06:57:28;;;;;;;7.40;5.50;;;;;;;;;;5057432;28;20448;-69
2021/12/01 06:59:57;;;;;;;7.50;5.53;;;;;;;;;;5045861;28;20462;-68
2021/12/01 07:02:25;;;;;;;5.97;5.10;;;;;;;;;;5044269;28;20450;-67
2021/12/01 07:04:53;;;;;;;9.17;5.70;;;;;;;;;;5045430;28;20449;-66
2021/12/01 07:07:22;;;;;;;8.00;5.33;;;;;;;;;;5052760;28;20975;-67
2021/12/01 07:09:51;;;;;;;6.77;4.83;;;;;;;;;;5057742;28;20553;-68
2021/12/01 07:12:19;;;;;;;8.00;5.47;;;;;;;;;;5057102;28;20539;-68
2021/12/01 07:14:47;;;;;;;7.43;4.47;;;;;;;;;;5057156;28;20870;-67
2021/12/01 07:17:17;;;;;;;7.93;4.83;;;;;;;;;;5057616;28;20472;-68
2021/12/01 07:19:45;;;;;;;6.17;5.10;;;;;;;;;;5065298;28;20471;-67
2021/12/01 07:22:13;;;;;;;7.43;4.80;;;;;;;;;;5059718;28;20473;-68
2021/12/01 07:24:41;;;;;;;6.83;5.07;;;;;;;;;;5047740;28;20512;-68
2021/12/01 07:27:13;;;;;;;7.00;4.33;;;;;;;;;;5047955;28;20494;-68
2021/12/01 07:29:42;;;;;;;7.30;4.80;;;;;;;;;;5056780;28;20480;-68
2021/12/01 07:32:10;;;;;;;8.87;4.80;;;;;;;;;;5055197;28;20489;-68
2021/12/01 07:34:43;;;;;;;5.87;3.57;;;;;;;;;;5053491;28;20453;-68
2021/12/01 07:37:12;;;;;;;5.90;3.50;;;;;;;;;;5043617;28;20454;-68
2021/12/01 07:39:41;;;;;;;4.30;2.93;;;;;;;;;;5053587;28;21106;-68
2021/12/01 07:42:10;;;;;;;6.43;3.47;;;;;;;;;;5046812;28;20462;-68
2021/12/01 07:44:38;;;;;;;3.23;2.90;;;;;;;;;;5052057;28;20540;-68
2021/12/01 07:47:06;;;;;;;4.57;3.83;;;;;;;;;;5055714;28;20499;-68
2021/12/01 07:49:35;;;;;;;4.87;3.30;;;;;;;;;;5046358;28;20520;-69
2021/12/01 07:52:08;;;;;;;4.80;3.77;;;;;;;;;;5054505;28;20551;-67
2021/12/01 07:54:37;;;;;;;7.50;4.23;;;;;;;;;;5050512;28;20476;-68
2021/12/01 07:57:05;;;;;;;5.27;3.80;;;;;;;;;;5055727;28;20507;-68
2021/12/01 07:59:33;;;;;;;7.00;4.60;;;;;;;;;;5047838;28;20530;-68
2021/12/01 08:02:01;;;;;;;5.53;4.43;;;;;;;;;;5043801;28;20442;-69
2021/12/01 08:04:29;;;;;;;11.33;4.40;;;;;;;;;;5045714;28;20973;-68
2021/12/01 08:06:57;;;;;;;5.87;3.97;;;;;;;;;;5049032;28;20792;-68
2021/12/01 08:09:27;;;;;;;7.83;4.37;;;;;;;;;;5047765;28;20509;-68
2021/12/01 08:11:55;;;;;;;11.60;4.87;;;;;;;;;;5043200;28;20476;-68
2021/12/01 08:14:24;;;;;;;4.03;3.63;;;;;;;;;;5043004;28;20476;-68
2021/12/01 08:16:52;;;;;;;5.10;4.00;;;;;;;;;;5040298;28;20446;-68
2021/12/01 08:19:21;;;;;;;6.03;4.40;;;;;;;;;;5044552;28;20460;-68
2021/12/01 08:21:50;;;;;;;9.93;4.50;;;;;;;;;;5043517;28;20839;-68
2021/12/01 08:24:19;;;;;;;4.60;3.73;;;;;;;;;;5043823;28;20533;-68
2021/12/01 08:26:49;;;;;;;5.57;3.87;;;;;;;;;;5044397;28;20537;-67
2021/12/01 08:29:17;;;;;;;5.63;4.83;;;;;;;;;;5043553;28;20977;-70
2021/12/01 08:31:45;;;;;;;8.30;4.20;;;;;;;;;;5046682;28;20554;-68
2021/12/01 08:34:13;;;;;;;5.17;4.27;;;;;;;;;;5055162;28;20535;-67
2021/12/01 08:36:41;;;;;;;6.77;4.37;;;;;;;;;;5052217;28;20532;-67
2021/12/01 08:39:09;;;;;;;6.93;4.10;;;;;;;;;;5045825;28;20644;-67
2021/12/01 08:41:37;;;;;;;5.43;3.77;;;;;;;;;;5043838;28;20473;-67
2021/12/01 08:44:08;;;;;;;8.63;4.50;;;;;;;;;;5042587;28;20477;-67
2021/12/01 08:46:36;;;;;;;5.23;3.67;;;;;;;;;;5048069;28;20433;-67
2021/12/01 08:49:04;;;;;;;6.07;4.20;;;;;;;;;;5047203;28;20458;-67
2021/12/01 08:51:33;;;;;;;6.83;4.63;;;;;;;;;;5046973;28;20516;-67
2021/12/01 08:54:01;;;;;;;5.33;3.50;;;;;;;;;;5045396;28;21004;-67
2021/12/01 08:56:29;;;;;;;13.53;6.60;;;;;;;;;;5048526;28;20437;-67
2021/12/01 08:58:57;;;;;;;9.97;5.30;;;;;;;;;;5044618;28;20529;-67
2021/12/01 09:01:26;;;;;;;5.10;4.13;;;;;;;;;;5056328;28;20471;-67
2021/12/01 09:03:55;;;;;;;5.80;3.40;;;;;;;;;;5060059;28;20444;-67
2021/12/01 09:06:23;;;;;;;7.50;3.87;;;;;;;;;;5046356;28;20936;-67
2021/12/01 09:08:52;;;;;;;4.60;4.00;;;;;;;;;;5059881;28;20515;-67
2021/12/01 09:11:20;;;;;;;3.80;3.50;;;;;;;;;;5058952;28;20500;-67
2021/12/01 09:13:48;;;;;;;7.57;4.43;;;;;;;;;;5049905;28;20488;-66
2021/12/01 09:16:22;;;;;;;5.90;3.57;;;;;;;;;;5045279;28;20457;-67
2021/12/01 09:18:52;;;;;;;4.70;3.40;;;;;;;;;;5053793;28;20485;-67
2021/12/01 09:21:21;;;;;;;9.97;4.20;;;;;;;;;;5057523;28;20532;-67
2021/12/01 09:23:49;;;;;;;5.67;4.33;;;;;;;;;;5045205;28;20464;-67
2021/12/01 09:26:17;;;;;;;5.07;3.70;;;;;;;;;;5058950;28;20449;-67
2021/12/01 09:28:45;;;;;;;6.23;3.83;;;;;;;;;;5057525;28;20512;-67
2021/12/01 09:31:13;;;;;;;4.43;3.90;;;;;;;;;;5053955;28;20453;-67
2021/12/01 09:33:42;;;;;;;6.77;4.70;;;;;;;;;;5057233;28;20550;-67
2021/12/01 09:36:12;;;;;;;6.23;3.93;;;;;;;;;;5056476;28;20450;-67
2021/12/01 09:38:40;;;;;;;6.53;4.33;;;;;;;;;;5044802;28;20476;-67
2021/12/01 09:41:10;;;;;;;5.00;4.20;;;;;;;;;;5058416;28;20438;-67
2021/12/01 09:43:38;;;;;;;7.03;5.67;;;;;;;;;;5055660;28;21022;-67
2021/12/01 09:46:09;;;;;;;8.97;5.33;;;;;;;;;;5056733;28;20460;-67
2021/12/01 09:48:39;;;;;;;9.97;4.00;;;;;;;;;;5055359;28;20478;-67
2021/12/01 09:51:14;;;;;;;5.60;4.20;;;;;;;;;;5058763;28;20536;-67
2021/12/01 09:53:43;;;;;;;7.47;4.57;;;;;;;;;;5069990;28;20476;-67
2021/12/01 09:56:11;;;;;;;6.87;4.30;;;;;;;;;;5066273;28;21032;-66
2021/12/01 09:58:39;;;;;;;6.57;4.03;;;;;;;;;;5046802;28;20472;-67
2021/12/01 10:01:09;;;;;;;8.80;5.00;;;;;;;;;;5041861;28;20455;-67
2021/12/01 10:03:39;;;;;;;6.73;4.67;;;;;;;;;;5045527;28;20438;-67
2021/12/01 10:06:11;;;;;;;5.47;4.00;;;;;;;;;;5043092;28;20458;-67
2021/12/01 10:08:41;;;;;;;3.73;3.40;;;;;;;;;;5045736;28;20470;-67
2021/12/01 10:11:10;;;;;;;5.00;3.47;;;;;;;;;;5044584;28;20553;-66
2021/12/01 10:13:39;;;;;;;3.87;3.13;;;;;;;;;;5044902;28;20490;-66
2021/12/01 10:16:07;;;;;;;6.03;4.00;;;;;;;;;;5044947;28;20443;-66
2021/12/01 10:18:37;;;;;;;6.73;3.90;;;;;;;;;;5056310;28;20472;-70
2021/12/01 10:21:06;;;;;;;8.60;4.10;;;;;;;;;;5051454;28;20548;-69
2021/12/01 10:23:35;;;;;;;6.30;3.73;;;;;;;;;;5052518;28;20510;-69
2021/12/01 10:26:08;;;;;;;5.40;3.90;;;;;;;;;;5057829;28;20487;-68
2021/12/01 10:28:38;;;;;;;5.97;3.23;;;;;;;;;;5058461;28;20543;-68
2021/12/01 10:31:09;;;;;;;5.53;3.87;;;;;;;;;;5052541;28;20507;-69
2021/12/01 10:33:38;;;;;;;4.30;3.23;;;;;;;;;;5042939;28;20478;-69
2021/12/01 10:36:08;;;;;;;7.40;3.90;;;;;;;;;;5045176;28;20439;-69
2021/12/01 10:38:38;;;;;;;4.17;3.20;;;;;;;;;;5048042;28;21016;-69
2021/12/01 10:41:09;;;;;;;5.20;3.67;;;;;;;;;;5043824;28;20430;-70
2021/12/01 10:43:45;;;;;;;5.80;3.37;;;;;;;;;;5045987;28;21097;-69
2021/12/01 10:46:14;;;;;;;5.67;3.20;;;;;;;;;;5045762;28;20441;-69
2021/12/01 10:48:43;;;;;;;6.47;3.67;;;;;;;;;;5045068;28;20465;-70
2021/12/01 10:51:13;;;;;;;5.67;3.40;;;;;;;;;;5045650;28;20464;-70
2021/12/01 10:53:42;;;;;;;5.50;3.83;;;;;;;;;;5046030;28;20513;-69
2021/12/01 10:56:15;;;;;;;4.80;3.80;;;;;;;;;;5046154;28;20476;-69
2021/12/01 10:58:43;;;;;;;4.50;3.50;;;;;;;;;;5046340;28;20498;-69
2021/12/01 11:01:19;;;;;;;4.80;3.70;;;;;;;;;;5044053;28;20471;-69
2021/12/01 11:03:48;;;;;;;3.67;3.23;;;;;;;;;;5040446;28;20464;-69
2021/12/01 11:06:20;;;;;;;5.40;3.30;;;;;;;;;;5045489;28;20450;-69
2021/12/01 11:08:49;;;;;;;7.13;3.63;;;;;;;;;;5041917;28;20462;-69
2021/12/01 11:11:19;;;;;;;5.17;3.80;;;;;;;;;;5051989;28;20469;-69
2021/12/01 11:14:11;;;;;;;4.30;3.73;;;;;;;;;;5059179;28;20473;-69
2021/12/01 11:16:40;;;;;;;5.97;4.30;;;;;;;;;;5057786;28;20445;-69
2021/12/01 11:19:08;;;;;;;4.60;3.77;;;;;;;;;;5047400;28;20475;-69
2021/12/01 11:21:37;;;;;;;5.03;3.50;;;;;;;;;;5043671;28;20445;-69
2021/12/01 11:24:07;;;;;;;5.27;3.80;;;;;;;;;;5044530;28;20945;-69
2021/12/01 11:26:37;;;;;;;5.20;3.90;;;;;;;;;;5046478;28;20871;-69
2021/12/01 11:29:20;;;;;;;5.57;3.93;;;;;;;;;;5046368;28;20461;-69
2021/12/01 11:31:48;;;;;;;5.10;3.50;;;;;;;;;;5044624;28;20438;-69
2021/12/01 11:34:17;;;;;;;6.80;3.80;;;;;;;;;;5043310;28;20480;-69
2021/12/01 11:36:46;;;;;;;4.50;3.50;;;;;;;;;;5053038;28;20465;-69
2021/12/01 11:39:17;;;;;;;6.70;4.17;;;;;;;;;;5055726;28;20477;-69
2021/12/01 11:41:49;;;;;;;7.13;3.70;;;;;;;;;;5047574;28;20453;-70
2021/12/01 11:44:18;;;;;;;4.70;3.53;;;;;;;;;;5043468;28;20433;-70
2021/12/01 11:46:48;;;;;;;3.87;3.13;;;;;;;;;;5044979;28;20444;-69
2021/12/01 11:49:16;;;;;;;4.20;3.00;;;;;;;;;;5044861;28;20536;-69
2021/12/01 11:51:46;;;;;;;6.83;3.63;;;;;;;;;;5045773;28;20451;-69
2021/12/01 11:54:16;;;;;;;5.87;3.50;;;;;;;;;;5039235;28;20514;-69
2021/12/01 11:56:55;;;;;;;4.93;3.67;;;;;;;;;;5042191;28;20506;-70
2021/12/01 11:59:24;;;;;;;6.30;3.70;;;;;;;;;;5042249;28;20523;-70
2021/12/01 12:01:59;;;;;;;6.53;4.33;;;;;;;;;;5042184;28;20489;-66
2021/12/01 12:04:28;;;;;;;10.07;5.57;;;;;;;;;;5041155;28;20449;-69
2021/12/01 12:07:00;;;;;;;7.37;4.13;;;;;;;;;;5041808;28;20436;-68
2021/12/01 12:10:15;;;;;;;6.33;3.63;;;;;;;;;;5053570;28;20489;-68
2021/12/01 12:12:46;;;;;;;6.70;4.90;;;;;;;;;;5015307;28;20477;-70
2021/12/01 12:15:29;;;;;;;5.30;3.83;;;;;;;;;;5061593;28;20479;-70
2021/12/01 12:17:57;;;;;;;8.70;4.53;;;;;;;;;;5037163;28;20464;-70
2021/12/01 12:20:27;;;;;;;7.47;4.73;;;;;;;;;;5043005;28;20533;-70
2021/12/01 12:23:04;;;;;;;5.07;3.50;;;;;;;;;;5048346;28;20441;-69
2021/12/01 12:25:37;;;;;;;7.30;4.27;;;;;;;;;;5045266;28;20434;-67
2021/12/01 12:28:22;;;;;;;6.03;3.90;;;;;;;;;;5048828;28;20475;-70
2021/12/01 12:30:50;;;;;;;6.67;4.13;;;;;;;;;;5046675;28;21048;-71
2021/12/01 12:33:19;;;;;;;6.27;3.47;;;;;;;;;;5053999;28;20510;-71
2021/12/01 12:35:49;;;;;;;8.37;4.43;;;;;;;;;;5058788;28;20487;-71
2021/12/01 12:38:18;;;;;;;5.63;3.90;;;;;;;;;;5056131;28;20489;-70
2021/12/01 12:40:46;;;;;;;5.03;3.97;;;;;;;;;;5060120;28;20441;-72
2021/12/01 12:43:15;;;;;;;3.63;3.07;;;;;;;;;;5050804;28;20480;-70
2021/12/01 12:46:00;;;;;;;7.50;4.23;;;;;;;;;;5040747;28;20473;-69
2021/12/01 12:48:29;;;;;;;4.93;3.97;;;;;;;;;;5044004;28;20544;-70
2021/12/01 12:51:07;;;;;;;6.17;4.20;;;;;;;;;;5050999;28;20445;-69
2021/12/01 12:53:37;;;;;;;4.73;3.67;;;;;;;;;;5052977;28;20445;-69
2021/12/01 12:56:20;;;;;;;5.80;4.20;;;;;;;;;;5047700;28;20483;-69
2021/12/01 12:58:48;;;;;;;4.67;3.40;;;;;;;;;;5046727;28;20457;-69
2021/12/01 13:01:25;;;;;;;4.40;4.00;;;;;;;;;;5046821;28;20953;-71
2021/12/01 13:03:54;;;;;;;5.10;3.77;;;;;;;;;;5042588;28;20483;-70
2021/12/01 13:06:26;;;;;;;3.23;2.93;;;;;;;;;;5050560;28;20464;-70
2021/12/01 13:08:55;;;;;;;5.63;3.13;;;;;;;;;;5046075;28;20545;-72
2021/12/01 13:11:25;;;;;;;3.27;2.53;;;;;;;;;;5053239;28;20200;-70
2021/12/01 13:13:54;;;;;;;4.80;2.43;;;;;;;;;;5045431;28;20490;-76
2021/12/01 13:16:22;;;;;;;8.83;3.33;;;;;;;;;;5054867;28;21014;-75
2021/12/01 13:18:52;;;;;;;3.33;3.00;;;;;;;;;;5059871;28;20465;-75
2021/12/01 13:21:21;;;;;;;3.57;2.50;;;;;;;;;;5057881;28;21029;-76
2021/12/01 13:23:49;;;;;;;3.77;2.40;;;;;;;;;;5058394;28;20516;-76
2021/12/01 13:26:18;;;;;;;3.43;3.10;;;;;;;;;;5056750;28;20792;-76
2021/12/01 13:28:48;;;;;;;2.83;2.47;;;;;;;;;;5058992;28;20449;-75
2021/12/01 13:31:17;;;;;;;3.83;1.93;;;;;;;;;;5057023;28;20483;-66
2021/12/01 13:34:03;;;;;;;3.90;3.03;;;;;;;;;;5058605;28;20806;-66
2021/12/01 13:36:33;;;;;;;3.27;2.87;;;;;;;;;;5056502;28;20489;-65
2021/12/01 13:39:06;;;;;;;2.60;2.30;;;;;;;;;;5060438;28;20215;-66
2021/12/01 13:41:36;;;;;;;5.40;3.43;;;;;;;;;;5062801;28;20434;-65
2021/12/01 13:44:06;;;;;;;5.23;3.10;;;;;;;;;;5062873;28;20268;-66
2021/12/01 13:46:34;;;;;;;6.23;3.80;;;;;;;;;;5058665;28;20437;-65
2021/12/01 13:49:04;;;;;;;4.67;3.10;;;;;;;;;;5064083;28;20599;-65
2021/12/01 13:51:36;;;;;;;4.77;2.73;;;;;;;;;;5055671;28;20462;-66
2021/12/01 13:54:15;;;;;;;6.63;3.17;;;;;;;;;;5049785;28;20211;-65
2021/12/01 13:56:43;;;;;;;5.70;3.20;;;;;;;;;;5053250;28;20230;-65
2021/12/01 13:59:11;;;;;;;6.07;2.60;;;;;;;;;;5052902;28;20237;-65
2021/12/01 14:01:44;;;;;;;5.93;3.63;;;;;;;;;;5045277;28;20214;-65
2021/12/01 14:04:14;;;;;;;4.63;2.93;;;;;;;;;;5058797;28;20737;-65
2021/12/01 14:06:42;;;;;;;4.73;2.50;;;;;;;;;;5057782;28;20456;-65
2021/12/01 14:09:13;;;;;;;4.23;2.20;;;;;;;;;;5058723;28;20270;-65
2021/12/01 14:11:45;;;;;;;6.00;3.50;;;;;;;;;;5058471;28;20293;-65
2021/12/01 14:14:15;;;;;;;13.10;4.73;;;;;;;;;;5058351;28;20532;-65
2021/12/01 14:16:44;;;;;;;3.67;2.40;;;;;;;;;;5058501;28;20630;-65
2021/12/01 14:19:12;;;;;;;2.30;2.10;;;;;;;;;;5049490;28;20219;-65
2021/12/01 14:21:41;;;;;;;2.50;2.23;;;;;;;;;;5050531;28;20207;-65
2021/12/01 14:24:11;;;;;;;2.37;1.73;;;;;;;;;;5048740;28;20207;-65
2021/12/01 14:26:40;;;;;;;2.47;1.80;;;;;;;;;;5056607;28;20195;-65
2021/12/01 14:29:09;;;;;;;2.00;1.73;;;;;;;;;;5057849;28;20324;-65
2021/12/01 14:31:37;;;;;;;7.90;3.10;;;;;;;;;;5040178;28;20203;-65
2021/12/01 14:34:06;;;;;;;3.97;2.33;;;;;;;;;;5057795;28;20202;-65
2021/12/01 14:36:35;;;;;;;5.30;2.93;;;;;;;;;;5054095;28;20223;-65
2021/12/01 14:39:05;;;;;;;2.30;1.60;;;;;;;;;;5047393;28;20457;-65
2021/12/01 14:41:34;;;;;;;6.47;3.17;;;;;;;;;;5058041;28;20207;-65
2021/12/01 14:44:03;;;;;;;6.73;2.80;;;;;;;;;;5058042;28;20210;-66
2021/12/01 14:46:32;;;;;;;4.47;2.90;;;;;;;;;;5039307;28;20690;-66
2021/12/01 14:49:05;;;;;;;2.97;2.63;;;;;;;;;;5049511;28;20251;-66
2021/12/01 14:51:36;;;;;;;4.83;2.70;;;;;;;;;;5057956;28;20209;-66
2021/12/01 14:54:11;;;;;;;2.80;2.27;;;;;;;;;;5056863;28;20208;-65
2021/12/01 14:56:40;;;;;;;5.17;2.00;;;;;;;;;;5048952;28;20228;-66